Time;durP1;ratioP1;P1;durP2;ratioP2;P2;SDS_P1;SDS_P2;PMS_P1;PMS_P2;Temp;Humidity;BMP_temperature;BMP_pressure;BME280_temperature;BME280_humidity;BME280_pressure;Samples;Min_cycle;Max_cycle;Signal;HPM_P1;HPM_P2
2023/10/13 00:00:36;;;;;;;15.80;5.83;;;13.20;83.60;;;;;;6280117;28;20332;-81
2023/10/13 00:03:42;;;;;;;7.17;6.50;;;13.30;83.60;;;;;;6285757;28;20846;-79
2023/10/13 00:06:45;;;;;;;10.73;8.40;;;13.20;83.60;;;;;;6276744;28;20240;-80
2023/10/13 00:09:48;;;;;;;9.17;8.17;;;13.20;83.60;;;;;;6276056;28;20350;-82
2023/10/13 00:12:52;;;;;;;7.27;6.33;;;13.20;83.60;;;;;;6278162;28;20256;-80
2023/10/13 00:15:59;;;;;;;7.33;6.37;;;13.20;83.60;;;;;;6262976;28;20798;-80
2023/10/13 00:19:06;;;;;;;7.50;6.57;;;13.30;83.50;;;;;;6278152;28;20320;-79
2023/10/13 00:22:10;;;;;;;6.60;6.00;;;13.20;83.50;;;;;;6274329;28;20254;-80
2023/10/13 00:25:19;;;;;;;5.93;5.40;;;13.30;83.50;;;;;;6283509;28;20233;-80
2023/10/13 00:28:24;;;;;;;6.60;5.90;;;13.20;83.50;;;;;;6270428;28;20810;-82
2023/10/13 00:31:33;;;;;;;6.37;5.83;;;13.20;83.40;;;;;;6273032;28;20305;-81
2023/10/13 00:34:38;;;;;;;9.00;8.10;;;13.30;83.40;;;;;;6282802;28;20238;-80
2023/10/13 00:37:44;;;;;;;7.03;6.50;;;13.20;83.40;;;;;;6276327;28;20294;-82
2023/10/13 00:40:52;;;;;;;5.50;5.10;;;13.20;83.50;;;;;;6278734;28;20240;-81
2023/10/13 00:44:04;;;;;;;5.53;5.03;;;13.20;83.50;;;;;;6285202;28;20364;-79
2023/10/13 00:47:09;;;;;;;5.93;5.30;;;13.20;83.40;;;;;;6278594;28;20237;-80
2023/10/13 00:50:15;;;;;;;5.87;5.40;;;13.30;83.40;;;;;;6280455;28;20261;-80
2023/10/13 00:53:17;;;;;;;4.67;4.37;;;13.30;83.30;;;;;;6289090;28;20240;-80
2023/10/13 00:56:22;;;;;;;5.57;5.10;;;13.20;83.20;;;;;;6277865;28;20229;-80
2023/10/13 00:59:25;;;;;;;4.73;4.43;;;13.20;83.30;;;;;;6290399;28;20230;-77
2023/10/13 01:02:38;;;;;;;5.93;5.53;;;13.20;83.30;;;;;;6289798;28;20233;-80
2023/10/13 01:05:42;;;;;;;5.97;4.73;;;13.20;83.30;;;;;;6289351;28;20241;-81
2023/10/13 01:08:50;;;;;;;5.77;5.37;;;13.20;83.20;;;;;;6285395;28;20240;-80
2023/10/13 01:11:54;;;;;;;6.13;5.63;;;13.10;83.40;;;;;;6278237;28;20226;-80
2023/10/13 01:14:57;;;;;;;6.40;5.10;;;13.20;83.50;;;;;;6279654;28;20419;-82
2023/10/13 01:18:11;;;;;;;7.57;5.33;;;13.10;83.50;;;;;;6280657;28;20776;-80
2023/10/13 01:21:19;;;;;;;5.67;5.10;;;13.10;83.60;;;;;;6272038;28;20788;-81
2023/10/13 01:24:25;;;;;;;6.13;5.57;;;13.10;83.70;;;;;;6283035;28;20380;-80
2023/10/13 01:27:28;;;;;;;6.53;5.93;;;13.20;83.50;;;;;;6286853;28;20257;-79
2023/10/13 01:30:31;;;;;;;8.37;7.57;;;13.20;83.70;;;;;;6282775;28;20236;-80
2023/10/13 01:33:34;;;;;;;5.90;5.40;;;13.10;83.90;;;;;;6273943;28;20247;-79
2023/10/13 01:36:40;;;;;;;12.10;11.00;;;13.10;83.90;;;;;;6299809;28;20237;-80
2023/10/13 01:39:47;;;;;;;8.20;7.33;;;13.20;84.00;;;;;;6270509;28;20233;-80
2023/10/13 01:42:55;;;;;;;7.30;6.57;;;13.10;84.30;;;;;;6286790;28;21008;-80
2023/10/13 01:45:58;;;;;;;7.23;6.53;;;13.10;84.30;;;;;;6295465;28;20283;-78
2023/10/13 01:49:02;;;;;;;8.50;6.37;;;13.10;84.30;;;;;;6319889;28;20247;-79
2023/10/13 01:52:04;;;;;;;7.53;6.40;;;13.10;84.40;;;;;;6300787;28;20245;-78
2023/10/13 01:55:12;;;;;;;7.07;6.47;;;13.10;84.40;;;;;;6315191;28;20331;-78
2023/10/13 01:58:16;;;;;;;7.47;6.80;;;13.10;84.50;;;;;;6313314;28;20240;-79
2023/10/13 02:01:27;;;;;;;10.90;9.13;;;13.10;84.60;;;;;;6317822;28;20301;-78
2023/10/13 02:04:32;;;;;;;8.90;8.10;;;13.10;84.50;;;;;;6306150;28;20218;-81
2023/10/13 02:07:38;;;;;;;10.73;8.50;;;13.10;84.60;;;;;;6311755;28;20205;-79
2023/10/13 02:10:43;;;;;;;9.77;8.77;;;13.10;84.60;;;;;;6312758;28;20218;-82
2023/10/13 02:13:53;;;;;;;11.97;9.13;;;13.10;84.80;;;;;;6319915;28;20430;-81
2023/10/13 02:17:12;;;;;;;12.23;11.00;;;13.10;84.90;;;;;;6304075;28;20244;-80
2023/10/13 02:20:14;;;;;;;9.03;8.03;;;13.10;85.00;;;;;;6319907;28;20217;-81
2023/10/13 02:23:18;;;;;;;11.57;8.80;;;13.10;85.00;;;;;;6312735;28;20286;-80
2023/10/13 02:26:30;;;;;;;8.47;7.57;;;13.00;85.30;;;;;;6304013;28;20217;-81
2023/10/13 02:29:39;;;;;;;15.00;8.83;;;13.10;85.20;;;;;;6320455;28;20238;-80
2023/10/13 02:32:43;;;;;;;9.17;7.90;;;13.10;85.20;;;;;;6320153;28;20245;-82
2023/10/13 02:35:53;;;;;;;9.03;7.70;;;13.10;85.30;;;;;;6319176;28;20229;-79
2023/10/13 02:38:57;;;;;;;10.03;8.43;;;13.10;85.10;;;;;;6281018;28;1124306;-80
2023/10/13 02:42:01;;;;;;;12.37;8.73;;;13.10;85.20;;;;;;6322258;28;20213;-84
2023/10/13 02:45:05;;;;;;;10.30;9.37;;;13.10;85.20;;;;;;6313443;28;20251;-80
2023/10/13 02:48:12;;;;;;;12.07;9.63;;;13.10;85.20;;;;;;6293424;28;20225;-79
2023/10/13 02:51:16;;;;;;;9.20;8.37;;;13.10;85.20;;;;;;6301929;28;20220;-79
2023/10/13 02:54:20;;;;;;;9.63;8.63;;;13.10;85.50;;;;;;6316088;28;20274;-79
2023/10/13 02:57:24;;;;;;;10.63;8.47;;;13.10;85.50;;;;;;6304854;28;20221;-78
2023/10/13 03:00:31;;;;;;;13.73;9.83;;;13.10;85.40;;;;;;6311283;28;20284;-82
2023/10/13 03:03:34;;;;;;;15.50;10.80;;;13.10;85.40;;;;;;6296018;28;20241;-83
2023/10/13 03:06:40;;;;;;;15.90;10.93;;;13.10;85.50;;;;;;6317987;28;20233;-80
2023/10/13 03:09:50;;;;;;;14.53;11.10;;;13.10;86.00;;;;;;6317329;28;20229;-81
2023/10/13 03:12:55;;;;;;;15.90;11.00;;;13.10;85.90;;;;;;6293215;28;20239;-80
2023/10/13 03:15:59;;;;;;;12.30;10.23;;;13.10;86.10;;;;;;6284997;28;20274;-81
2023/10/13 03:19:07;;;;;;;11.40;10.20;;;13.10;86.00;;;;;;6277570;28;20342;-81
2023/10/13 03:22:12;;;;;;;13.77;11.77;;;13.10;86.00;;;;;;6273929;28;20229;-80
2023/10/13 03:25:23;;;;;;;13.97;10.37;;;13.10;85.90;;;;;;6270237;28;20230;-81
2023/10/13 03:28:33;;;;;;;14.07;10.77;;;13.20;85.90;;;;;;6281011;28;20236;-80
2023/10/13 03:31:39;;;;;;;11.00;9.90;;;13.20;85.90;;;;;;6262334;28;20238;-80
2023/10/13 03:34:49;;;;;;;13.57;12.17;;;13.20;85.90;;;;;;6292595;28;20247;-80
2023/10/13 03:37:53;;;;;;;13.80;12.40;;;13.30;85.90;;;;;;6274106;28;20260;-81
2023/10/13 03:41:06;;;;;;;13.53;11.00;;;13.30;85.90;;;;;;6278910;28;20256;-80
2023/10/13 03:44:17;;;;;;;16.70;12.00;;;13.30;85.90;;;;;;6263303;28;20315;-79
2023/10/13 03:47:26;;;;;;;16.07;12.83;;;13.30;85.90;;;;;;6264419;28;20303;-80
2023/10/13 03:50:32;;;;;;;16.77;12.60;;;13.30;86.10;;;;;;6279938;28;20234;-80
2023/10/13 03:53:36;;;;;;;14.10;11.43;;;13.30;86.10;;;;;;6270430;28;20253;-81
2023/10/13 03:56:39;;;;;;;19.70;12.90;;;13.30;86.20;;;;;;6283871;28;20311;-81
2023/10/13 03:59:48;;;;;;;17.77;13.23;;;13.30;86.30;;;;;;6270692;28;20763;-81
2023/10/13 04:03:04;;;;;;;19.73;14.10;;;13.30;86.30;;;;;;6279311;28;20249;-82
2023/10/13 04:06:08;;;;;;;17.83;13.33;;;13.30;86.30;;;;;;6272159;28;20229;-80
2023/10/13 04:16:34;;;;;;;16.67;14.13;;;13.30;86.30;;;;;;6277229;28;20234;-81
2023/10/13 04:20:12;;;;;;;16.20;14.30;;;13.30;86.30;;;;;;6269600;28;20233;-79
2023/10/13 04:23:19;;;;;;;21.03;15.03;;;13.40;86.30;;;;;;6277227;28;20744;-78
2023/10/13 04:26:21;;;;;;;17.63;14.50;;;13.50;86.40;;;;;;6273557;28;20237;-81
2023/10/13 04:29:45;;;;;;;21.50;15.20;;;13.50;86.20;;;;;;6277900;28;20733;-80
2023/10/13 04:33:17;;;;;;;16.37;14.77;;;13.50;86.20;;;;;;6268876;28;20241;-80
2023/10/13 04:36:16;;;;;;;19.67;15.37;;;13.50;86.10;;;;;;6276304;28;20253;-80
2023/10/13 04:39:35;;;;;;;16.43;14.57;;;13.50;86.20;;;;;;6274944;28;20226;-82
2023/10/13 04:42:50;;;;;;;19.30;17.30;;;13.50;86.30;;;;;;6268664;28;20613;-81
2023/10/13 04:45:54;;;;;;;18.17;16.17;;;13.60;86.40;;;;;;6279183;28;20234;-80
2023/10/13 04:49:02;;;;;;;14.97;13.47;;;13.60;86.30;;;;;;6282473;28;20248;-81
2023/10/13 04:52:26;;;;;;;19.17;17.00;;;13.60;86.30;;;;;;6278320;28;20225;-84
2023/10/13 04:55:59;;;;;;;22.30;17.57;;;13.60;86.30;;;;;;6268063;28;20794;-83
2023/10/13 05:03:30;;;;;;;23.07;19.00;;;13.60;86.40;;;;;;6283979;28;20237;-83
2023/10/13 05:47:00;;;;;;;21.37;17.17;;;14.00;86.30;;;;;;6286441;28;20533;-84
2023/10/13 05:50:12;;;;;;;22.20;16.90;;;14.10;86.00;;;;;;6278493;28;20238;-82
2023/10/13 06:30:08;;;;;;;22.03;16.93;;;14.40;86.40;;;;;;6268222;28;20237;-78
2023/10/13 06:33:11;;;;;;;17.57;15.60;;;14.40;86.10;;;;;;6274855;28;20260;-78
2023/10/13 06:36:14;;;;;;;25.03;17.23;;;14.50;86.10;;;;;;6284308;28;20804;-78
2023/10/13 06:42:42;;;;;;;19.60;15.97;;;14.50;85.90;;;;;;6282351;28;20238;-79
2023/10/13 06:45:56;;;;;;;18.87;16.13;;;14.60;85.80;;;;;;6277721;28;20245;-79
2023/10/13 06:49:02;;;;;;;18.13;16.03;;;14.60;85.80;;;;;;6281641;28;20229;-82
2023/10/13 06:52:06;;;;;;;19.97;16.67;;;14.60;85.80;;;;;;6281428;28;20228;-82
2023/10/13 06:55:16;;;;;;;21.03;16.37;;;14.60;85.80;;;;;;6290975;28;20233;-84
2023/10/13 06:58:23;;;;;;;15.60;14.10;;;14.60;86.00;;;;;;6286564;28;20229;-83
2023/10/13 07:01:29;;;;;;;18.13;16.20;;;14.70;85.90;;;;;;6271877;28;20322;-82
2023/10/13 07:04:32;;;;;;;16.80;15.10;;;14.80;85.80;;;;;;6276744;28;20239;-83
2023/10/13 07:07:38;;;;;;;16.77;14.83;;;14.90;85.90;;;;;;6270005;28;20234;-83
2023/10/13 07:10:51;;;;;;;17.77;14.60;;;15.10;85.40;;;;;;6281875;28;20238;-84
2023/10/13 07:13:58;;;;;;;19.10;15.00;;;15.20;85.00;;;;;;6273978;28;20242;-82
2023/10/13 07:17:04;;;;;;;14.57;13.17;;;15.40;84.50;;;;;;6278618;28;20252;-83
2023/10/13 07:20:16;;;;;;;15.00;13.43;;;15.50;84.20;;;;;;6282660;28;20375;-84
2023/10/13 07:23:20;;;;;;;14.30;12.83;;;15.50;84.00;;;;;;6287053;28;20289;-85
2023/10/13 07:26:26;;;;;;;14.87;12.83;;;15.70;83.80;;;;;;6286344;28;20233;-82
2023/10/13 07:29:30;;;;;;;16.87;14.33;;;15.70;83.30;;;;;;6287023;28;20237;-84
2023/10/13 07:32:35;;;;;;;15.40;12.37;;;15.80;82.90;;;;;;6273127;28;20632;-83
2023/10/13 07:35:38;;;;;;;15.63;12.33;;;15.70;83.20;;;;;;6281622;28;20316;-82
2023/10/13 07:38:42;;;;;;;16.23;12.10;;;15.70;83.30;;;;;;6276505;28;20233;-82
2023/10/13 07:41:51;;;;;;;13.47;12.07;;;15.70;83.30;;;;;;6284601;28;20229;-83
2023/10/13 07:44:55;;;;;;;13.90;11.70;;;15.80;83.30;;;;;;6287300;28;20757;-84
2023/10/13 07:48:00;;;;;;;13.70;12.13;;;15.80;83.30;;;;;;6274255;28;20233;-83
2023/10/13 07:51:05;;;;;;;12.10;11.07;;;16.00;82.70;;;;;;6287283;28;20332;-82
2023/10/13 07:54:11;;;;;;;11.60;10.53;;;16.00;82.80;;;;;;6283742;28;20241;-84
2023/10/13 07:57:17;;;;;;;13.17;10.63;;;16.00;82.30;;;;;;6283286;28;20234;-83
2023/10/13 08:00:29;;;;;;;11.13;10.23;;;16.10;82.30;;;;;;6287628;28;20708;-83
2023/10/13 08:03:43;;;;;;;11.57;10.50;;;16.10;82.20;;;;;;6271706;28;20240;-84
2023/10/13 08:06:48;;;;;;;11.47;10.53;;;16.10;82.00;;;;;;6283809;28;20241;-83
2023/10/13 08:09:53;;;;;;;11.13;10.03;;;16.20;81.80;;;;;;6285944;28;20750;-81
2023/10/13 08:12:58;;;;;;;11.27;10.17;;;16.20;81.80;;;;;;6293293;28;20237;-83
2023/10/13 08:16:07;;;;;;;12.67;10.33;;;16.20;81.90;;;;;;6284118;28;20237;-83
2023/10/13 08:19:13;;;;;;;11.07;10.07;;;16.40;81.90;;;;;;6282146;28;20624;-82
2023/10/13 08:22:25;;;;;;;11.93;9.80;;;16.40;81.50;;;;;;6279446;28;20673;-81
2023/10/13 08:26:29;;;;;;;10.77;9.67;;;16.40;81.60;;;;;;6283990;28;20609;-84
2023/10/13 08:28:56;;;;;;;10.30;9.40;;;16.50;81.60;;;;;;6283987;28;20347;-84
2023/10/13 08:32:23;;;;;;;10.37;9.43;;;16.70;81.10;;;;;;6278180;28;20245;-83
2023/10/13 08:35:37;;;;;;;10.43;9.23;;;16.80;80.40;;;;;;6277290;28;20238;-81
2023/10/13 08:38:50;;;;;;;10.67;9.70;;;17.00;79.80;;;;;;6273244;28;21011;-84
2023/10/13 08:42:11;;;;;;;9.67;8.87;;;16.90;79.80;;;;;;6279389;28;20237;-83
2023/10/13 08:45:53;;;;;;;10.07;9.17;;;16.90;79.90;;;;;;6278663;28;20297;-81
2023/10/13 08:48:47;;;;;;;10.73;8.77;;;16.90;80.30;;;;;;6264636;28;20252;-81
2023/10/13 08:52:06;;;;;;;11.20;10.00;;;16.90;79.80;;;;;;6280607;28;20241;-83
2023/10/13 08:55:39;;;;;;;9.67;8.87;;;17.00;79.80;;;;;;6275858;28;20237;-82
2023/10/13 09:02:15;;;;;;;9.50;8.60;;;17.00;79.80;;;;;;6276790;28;20234;-83
2023/10/13 09:08:45;;;;;;;9.07;8.23;;;17.10;79.40;;;;;;6286007;28;20237;-82
2023/10/13 09:11:53;;;;;;;9.60;8.70;;;17.20;79.50;;;;;;6279008;28;20320;-83
2023/10/13 09:14:57;;;;;;;9.57;8.63;;;17.20;79.60;;;;;;6289901;28;20282;-82
2023/10/13 09:18:12;;;;;;;10.13;9.07;;;17.10;79.80;;;;;;6275160;28;20659;-83
2023/10/13 09:24:43;;;;;;;9.53;8.57;;;17.20;79.20;;;;;;6277513;28;20742;-83
2023/10/13 09:27:51;;;;;;;10.00;9.07;;;17.20;79.50;;;;;;6284008;28;20233;-85
2023/10/13 09:30:56;;;;;;;12.23;8.87;;;17.30;79.60;;;;;;6286845;28;20294;-82
2023/10/13 09:34:02;;;;;;;9.30;8.40;;;17.20;79.30;;;;;;6284407;28;20371;-81
2023/10/13 09:37:09;;;;;;;9.40;8.50;;;17.20;79.60;;;;;;6280144;28;20236;-83
2023/10/13 09:40:26;;;;;;;9.53;8.80;;;17.30;79.80;;;;;;6282874;28;20741;-83
2023/10/13 09:43:30;;;;;;;9.97;9.13;;;17.30;79.90;;;;;;6283051;28;20294;-84
2023/10/13 09:46:40;;;;;;;10.27;9.33;;;17.40;79.70;;;;;;6280674;28;20245;-83
2023/10/13 09:49:48;;;;;;;9.10;8.50;;;17.50;79.60;;;;;;6284557;28;20233;-81
2023/10/13 09:52:54;;;;;;;12.53;9.10;;;17.40;79.40;;;;;;6276757;28;20355;-84
2023/10/13 09:56:13;;;;;;;10.33;8.77;;;17.20;79.80;;;;;;6275958;28;20248;-82
2023/10/13 09:59:19;;;;;;;9.30;8.43;;;17.20;80.50;;;;;;6286530;28;20275;-84
2023/10/13 10:02:26;;;;;;;10.50;9.43;;;17.20;80.60;;;;;;6270232;28;20233;-82
2023/10/13 10:05:34;;;;;;;9.50;8.80;;;17.20;80.50;;;;;;6290862;28;20317;-84
2023/10/13 10:08:48;;;;;;;10.57;9.13;;;17.20;80.50;;;;;;6282803;28;20230;-86
2023/10/13 10:12:10;;;;;;;10.60;9.47;;;17.20;80.70;;;;;;6286648;28;20238;-83
2023/10/13 10:15:30;;;;;;;9.77;8.50;;;17.20;81.20;;;;;;6277748;28;20234;-83
2023/10/13 10:18:34;;;;;;;9.97;8.97;;;17.30;80.70;;;;;;6289819;28;20237;-85
2023/10/13 10:21:38;;;;;;;10.63;9.57;;;17.20;81.00;;;;;;6281590;28;20229;-83
2023/10/13 10:24:42;;;;;;;9.40;8.60;;;17.30;80.80;;;;;;6283976;28;20244;-83
2023/10/13 10:27:56;;;;;;;8.70;8.00;;;17.40;80.90;;;;;;6269988;28;20308;-82
2023/10/13 10:31:09;;;;;;;9.20;8.40;;;17.40;80.90;;;;;;6287394;28;20249;-83
2023/10/13 10:34:18;;;;;;;9.83;8.70;;;17.40;81.10;;;;;;6285388;28;20741;-84
2023/10/13 10:37:25;;;;;;;9.17;8.47;;;17.50;80.80;;;;;;6280923;28;20256;-83
2023/10/13 10:40:46;;;;;;;8.87;8.27;;;17.50;80.80;;;;;;6275101;28;20291;-84
2023/10/13 10:43:51;;;;;;;9.10;8.13;;;17.50;80.70;;;;;;6287795;28;20644;-84
2023/10/13 10:46:58;;;;;;;9.30;8.50;;;17.50;81.20;;;;;;6282313;28;20244;-83
2023/10/13 10:50:18;;;;;;;8.33;7.70;;;17.50;81.50;;;;;;6285052;28;20701;-83
2023/10/13 10:53:32;;;;;;;11.80;9.27;;;17.50;81.90;;;;;;6280614;28;20226;-83
2023/10/13 10:56:37;;;;;;;10.07;9.00;;;17.50;82.30;;;;;;6260085;28;20226;-82
2023/10/13 10:59:42;;;;;;;9.83;9.07;;;17.50;82.60;;;;;;6275081;28;20241;-86
2023/10/13 11:02:55;;;;;;;9.87;8.97;;;17.50;82.90;;;;;;6284228;28;20261;-84
2023/10/13 11:05:59;;;;;;;11.87;9.30;;;17.40;83.20;;;;;;6267721;28;20242;-82
2023/10/13 11:09:18;;;;;;;10.33;9.43;;;17.40;83.30;;;;;;6271885;28;20268;-84
2023/10/13 11:12:26;;;;;;;9.93;9.00;;;17.40;83.50;;;;;;6278824;28;20299;-84
2023/10/13 11:15:44;;;;;;;10.80;9.80;;;17.50;83.60;;;;;;6243662;28;20290;-84
2023/10/13 11:18:47;;;;;;;11.53;10.33;;;17.50;83.30;;;;;;6281606;28;20229;-84
2023/10/13 11:21:52;;;;;;;10.43;9.53;;;17.50;83.40;;;;;;6277993;28;20240;-83
2023/10/13 11:24:59;;;;;;;9.37;8.40;;;17.60;83.40;;;;;;6276730;28;20743;-84
2023/10/13 11:28:17;;;;;;;11.53;9.30;;;17.60;83.20;;;;;;6277017;28;20237;-85
2023/10/13 11:31:24;;;;;;;9.73;8.97;;;17.60;83.20;;;;;;6278732;28;20311;-83
2023/10/13 11:34:39;;;;;;;12.13;9.70;;;17.70;83.30;;;;;;6279824;28;20241;-83
2023/10/13 11:37:43;;;;;;;10.53;9.20;;;17.80;82.90;;;;;;6273080;28;20256;-83
2023/10/13 11:41:07;;;;;;;10.43;9.40;;;17.80;82.80;;;;;;6282368;28;20394;-84
2023/10/13 11:44:23;;;;;;;10.07;9.07;;;17.90;82.60;;;;;;6279714;28;20234;-83
2023/10/13 11:47:47;;;;;;;12.57;10.00;;;17.90;82.40;;;;;;6278690;28;20225;-82
2023/10/13 11:50:51;;;;;;;11.93;10.80;;;17.90;82.20;;;;;;6276789;28;20244;-82
2023/10/13 11:53:55;;;;;;;13.40;10.13;;;18.00;82.30;;;;;;6287104;28;20236;-83
2023/10/13 11:56:59;;;;;;;10.33;9.50;;;18.00;82.10;;;;;;6285713;28;20741;-83
2023/10/13 12:14:11;;;;;;;10.30;8.17;;;18.00;81.90;;;;;;7775686;22;1430172;-84
2023/10/13 12:17:18;;;;;;;9.30;8.37;;;18.40;80.60;;;;;;7828046;22;20212;-84
2023/10/13 12:20:32;;;;;;;9.20;8.30;;;18.50;79.90;;;;;;7815432;22;20216;-83
2023/10/13 12:23:36;;;;;;;9.77;8.57;;;18.50;80.00;;;;;;7837648;22;20229;-82
2023/10/13 12:26:41;;;;;;;11.53;8.30;;;18.50;79.80;;;;;;7835201;22;20211;-82
2023/10/13 12:29:47;;;;;;;8.60;7.80;;;18.60;79.80;;;;;;7828926;22;20231;-83
2023/10/13 12:32:58;;;;;;;10.33;8.23;;;18.70;79.60;;;;;;7828065;22;20317;-82
2023/10/13 12:36:09;;;;;;;9.00;8.17;;;18.80;79.30;;;;;;7825066;22;20215;-82
2023/10/13 12:49:38;;;;;;;11.40;8.17;;;19.00;79.00;;;;;;7813611;22;20665;-84
2023/10/13 12:52:45;;;;;;;9.97;7.87;;;19.10;77.90;;;;;;7825562;22;20704;-82
2023/10/13 12:55:52;;;;;;;10.30;7.70;;;19.20;77.90;;;;;;7828658;22;20212;-84
2023/10/13 12:58:56;;;;;;;8.43;7.50;;;19.20;77.90;;;;;;7811448;22;20296;-82
2023/10/13 13:02:07;;;;;;;11.23;7.33;;;19.30;77.90;;;;;;7827373;22;21037;-83
2023/10/13 13:05:12;;;;;;;11.17;7.77;;;19.30;77.80;;;;;;7826060;22;20231;-82
2023/10/13 13:08:21;;;;;;;10.77;7.37;;;19.30;77.50;;;;;;7823957;22;20219;-82
2023/10/13 13:11:28;;;;;;;9.90;7.90;;;19.50;77.30;;;;;;7827747;22;20213;-84
2023/10/13 13:14:34;;;;;;;10.43;7.90;;;19.50;77.20;;;;;;7817690;22;20612;-83
2023/10/13 13:17:39;;;;;;;15.47;8.07;;;19.60;76.90;;;;;;7815820;22;20212;-83
2023/10/13 13:20:53;;;;;;;9.77;7.40;;;19.70;76.60;;;;;;7817759;22;20208;-83
2023/10/13 13:23:58;;;;;;;9.83;7.43;;;19.70;76.50;;;;;;7818617;22;20213;-83
2023/10/13 13:27:05;;;;;;;10.10;7.73;;;19.70;76.50;;;;;;7816678;22;20219;-85
2023/10/13 13:30:12;;;;;;;8.00;6.93;;;19.70;76.40;;;;;;7816902;22;20208;-84
2023/10/13 13:33:23;;;;;;;14.23;7.17;;;19.90;75.60;;;;;;7816842;22;20220;-83
2023/10/13 13:36:27;;;;;;;10.63;7.27;;;20.10;75.60;;;;;;7818966;22;20220;-85
2023/10/13 13:39:31;;;;;;;9.80;7.90;;;20.20;74.70;;;;;;7817598;22;20216;-83
2023/10/13 13:42:37;;;;;;;10.50;7.30;;;20.30;74.60;;;;;;7818154;22;20208;-83
2023/10/13 13:45:41;;;;;;;10.43;7.37;;;20.30;74.40;;;;;;7817637;22;20235;-84
2023/10/13 13:48:47;;;;;;;13.60;7.33;;;20.40;74.00;;;;;;7815957;22;20239;-85
2023/10/13 13:51:52;;;;;;;12.50;7.13;;;20.50;74.00;;;;;;7818164;22;20525;-81
2023/10/13 13:54:56;;;;;;;9.03;7.00;;;20.40;73.70;;;;;;7810070;22;20220;-84
2023/10/13 13:58:12;;;;;;;14.20;7.40;;;20.40;73.80;;;;;;7817593;22;20208;-83
2023/10/13 14:01:18;;;;;;;12.87;7.87;;;20.50;73.50;;;;;;7816847;22;20303;-84
2023/10/13 14:04:23;;;;;;;12.90;8.00;;;20.50;73.30;;;;;;7819058;22;20223;-84
2023/10/13 14:07:32;;;;;;;11.83;7.30;;;20.60;72.40;;;;;;7819378;22;20204;-85
2023/10/13 14:11:13;;;;;;;13.93;8.00;;;20.70;72.40;;;;;;7817283;22;20285;-83
2023/10/13 14:14:03;;;;;;;8.77;6.53;;;20.80;72.00;;;;;;7815283;22;20247;-85
2023/10/13 14:17:09;;;;;;;16.90;8.17;;;20.90;71.90;;;;;;7816064;22;20226;-82
2023/10/13 14:20:18;;;;;;;10.70;7.10;;;21.00;71.70;;;;;;7815686;22;20669;-82
2023/10/13 14:23:25;;;;;;;12.53;7.40;;;21.10;71.10;;;;;;7816867;22;20216;-83
2023/10/13 14:26:28;;;;;;;10.33;7.20;;;21.10;71.10;;;;;;7817979;22;20208;-86
2023/10/13 14:29:32;;;;;;;16.23;6.90;;;21.10;70.90;;;;;;7818353;22;20434;-84
2023/10/13 14:32:40;;;;;;;9.87;7.10;;;21.10;70.50;;;;;;7801122;22;20211;-85
2023/10/13 14:35:47;;;;;;;11.20;7.13;;;21.10;70.40;;;;;;7817243;22;20230;-85
2023/10/13 14:38:52;;;;;;;7.27;6.53;;;21.10;70.00;;;;;;7817984;22;20246;-84
2023/10/13 14:41:55;;;;;;;16.53;6.90;;;21.10;69.60;;;;;;7817061;22;20673;-83
2023/10/13 14:45:00;;;;;;;9.40;7.33;;;21.20;69.20;;;;;;7818841;22;20281;-85
2023/10/13 14:48:08;;;;;;;11.63;6.97;;;21.20;69.00;;;;;;7818033;22;20231;-88
2023/10/13 14:51:16;;;;;;;11.77;6.90;;;21.10;68.90;;;;;;7818348;22;20265;-86
2023/10/13 14:54:28;;;;;;;17.50;6.93;;;21.10;68.60;;;;;;7761502;22;20232;-85
2023/10/13 14:57:37;;;;;;;11.67;7.40;;;21.10;68.90;;;;;;7786077;22;20200;-86
2023/10/13 15:00:48;;;;;;;11.70;7.37;;;21.10;69.10;;;;;;7803861;22;20219;-86
2023/10/13 15:03:56;;;;;;;9.47;7.30;;;21.00;69.00;;;;;;7816795;22;20370;-84
2023/10/13 15:07:02;;;;;;;16.10;7.90;;;21.00;69.30;;;;;;7774810;22;20208;-84
2023/10/13 15:10:07;;;;;;;13.97;7.20;;;21.00;69.00;;;;;;7819164;22;20760;-85
2023/10/13 15:13:10;;;;;;;13.63;7.80;;;21.00;68.90;;;;;;7837292;22;20216;-85
2023/10/13 15:16:17;;;;;;;13.27;7.40;;;20.90;69.00;;;;;;7820312;22;20582;-84
2023/10/13 15:19:21;;;;;;;13.13;7.60;;;20.90;69.20;;;;;;7816558;22;20223;-82
2023/10/13 15:22:39;;;;;;;13.03;7.50;;;20.90;69.00;;;;;;7814298;22;20283;-82
2023/10/13 15:25:49;;;;;;;12.97;6.97;;;20.80;69.10;;;;;;7815430;22;20240;-83
2023/10/13 15:28:53;;;;;;;12.53;7.77;;;20.80;69.20;;;;;;7821677;22;20563;-85
2023/10/13 15:32:41;;;;;;;9.17;7.43;;;20.70;69.70;;;;;;7826191;22;20238;-85
2023/10/13 15:35:30;;;;;;;9.03;7.83;;;20.60;69.80;;;;;;7822849;22;20713;-86
2023/10/13 15:38:37;;;;;;;15.83;8.77;;;20.50;70.00;;;;;;7818586;22;20223;-84
2023/10/13 15:41:40;;;;;;;16.40;8.80;;;20.50;70.00;;;;;;7817032;22;20266;-85
2023/10/13 15:44:44;;;;;;;11.93;9.37;;;20.50;70.10;;;;;;7818389;22;20216;-85
2023/10/13 15:47:48;;;;;;;11.03;8.73;;;20.50;70.00;;;;;;7816757;22;21716;-85
2023/10/13 15:50:54;;;;;;;13.33;8.43;;;20.50;70.20;;;;;;7816290;22;20546;-85
2023/10/13 15:54:00;;;;;;;11.97;7.97;;;20.50;70.10;;;;;;7816098;22;20212;-84
2023/10/13 15:57:06;;;;;;;11.97;8.37;;;20.40;70.20;;;;;;7815754;22;20948;-85
2023/10/13 16:00:24;;;;;;;17.73;8.00;;;20.40;70.20;;;;;;7799090;22;20237;-83
2023/10/13 16:03:29;;;;;;;10.80;8.30;;;20.30;70.50;;;;;;7816620;22;20353;-84
2023/10/13 16:06:33;;;;;;;11.43;9.07;;;20.30;70.50;;;;;;7816544;22;20212;-84
2023/10/13 16:09:38;;;;;;;17.00;8.23;;;20.30;70.20;;;;;;7814641;22;20208;-83
2023/10/13 16:12:44;;;;;;;12.90;8.27;;;20.30;70.30;;;;;;7815570;22;20208;-83
2023/10/13 16:15:48;;;;;;;15.00;9.07;;;20.20;70.10;;;;;;7814595;22;20252;-85
2023/10/13 16:18:52;;;;;;;10.07;8.17;;;20.10;70.40;;;;;;7816712;22;20683;-84
2023/10/13 16:21:56;;;;;;;10.73;8.23;;;20.10;70.10;;;;;;7818224;22;20223;-85
2023/10/13 16:25:01;;;;;;;12.00;7.70;;;20.10;70.60;;;;;;7819356;22;20231;-83
2023/10/13 16:28:22;;;;;;;13.53;9.27;;;20.10;69.90;;;;;;7813620;22;20204;-83
2023/10/13 16:31:27;;;;;;;21.50;8.80;;;20.00;69.90;;;;;;7805665;22;20216;-85
2023/10/13 16:34:31;;;;;;;10.30;9.20;;;20.00;70.20;;;;;;7814067;22;20208;-85
2023/10/13 16:37:34;;;;;;;10.50;8.73;;;20.00;69.90;;;;;;7817600;22;20216;-86
2023/10/13 16:40:40;;;;;;;17.10;9.10;;;20.00;69.80;;;;;;7819327;22;20665;-85
2023/10/13 16:43:43;;;;;;;13.37;9.07;;;20.00;69.70;;;;;;7813583;22;20581;-83
2023/10/13 16:46:46;;;;;;;13.80;8.97;;;20.00;69.80;;;;;;7779866;22;20678;-86
2023/10/13 16:49:50;;;;;;;11.37;8.03;;;19.90;69.80;;;;;;7818911;22;20216;-82
2023/10/13 16:52:53;;;;;;;11.30;8.93;;;19.80;69.90;;;;;;7819424;22;20212;-84
2023/10/13 16:56:02;;;;;;;18.43;9.07;;;19.90;69.80;;;;;;7793590;22;20215;-84
2023/10/13 16:59:09;;;;;;;13.40;9.57;;;19.80;69.70;;;;;;7787044;22;20239;-84
2023/10/13 17:02:14;;;;;;;15.60;8.70;;;19.80;69.50;;;;;;7814986;22;20574;-86
2023/10/13 17:05:18;;;;;;;13.33;8.30;;;19.80;69.50;;;;;;7818151;22;20262;-84
2023/10/13 17:08:21;;;;;;;15.10;8.50;;;19.80;69.40;;;;;;7814900;22;20215;-83
2023/10/13 17:11:34;;;;;;;13.93;8.90;;;19.70;69.70;;;;;;7817806;22;20414;-85
2023/10/13 17:14:40;;;;;;;17.50;9.73;;;19.70;69.20;;;;;;7819034;22;20223;-85
2023/10/13 17:17:44;;;;;;;10.03;8.87;;;19.80;68.90;;;;;;7818591;22;20216;-85
2023/10/13 17:20:47;;;;;;;13.63;9.20;;;19.90;68.90;;;;;;7821477;22;20774;-84
2023/10/13 17:23:52;;;;;;;9.47;8.37;;;19.80;68.70;;;;;;7819454;22;20607;-84
2023/10/13 17:27:00;;;;;;;13.53;7.97;;;19.80;68.70;;;;;;7813262;22;20215;-85
2023/10/13 17:30:09;;;;;;;12.03;8.30;;;19.80;68.50;;;;;;7825529;22;20659;-84
2023/10/13 17:33:15;;;;;;;9.47;7.40;;;19.90;68.20;;;;;;7816919;22;20215;-85
2023/10/13 17:36:21;;;;;;;8.70;7.80;;;20.00;67.70;;;;;;7819966;22;20217;-86
2023/10/13 17:39:26;;;;;;;9.53;8.33;;;20.00;67.30;;;;;;7818766;22;20228;-86
2023/10/13 17:42:35;;;;;;;11.17;8.33;;;20.10;66.90;;;;;;7817529;22;20211;-86
2023/10/13 17:45:40;;;;;;;10.93;8.17;;;20.10;67.10;;;;;;7816734;22;20228;-87
2023/10/13 17:48:44;;;;;;;12.67;8.50;;;20.10;66.80;;;;;;7821856;22;20208;-85
2023/10/13 17:51:48;;;;;;;7.50;6.63;;;20.10;66.50;;;;;;7817811;22;20207;-86
2023/10/13 17:54:52;;;;;;;11.67;7.37;;;20.10;66.10;;;;;;7817309;22;20215;-81
2023/10/13 17:57:58;;;;;;;7.77;6.97;;;20.10;66.30;;;;;;7818412;22;20796;-83
2023/10/13 18:01:06;;;;;;;10.33;7.33;;;20.10;65.80;;;;;;7816088;22;20342;-79
2023/10/13 18:04:10;;;;;;;14.63;7.97;;;20.20;65.60;;;;;;7817999;22;20677;-83
2023/10/13 18:07:18;;;;;;;12.03;7.13;;;20.10;66.00;;;;;;7816450;22;20220;-85
2023/10/13 18:10:21;;;;;;;9.67;7.70;;;20.10;65.60;;;;;;7816393;22;20713;-84
2023/10/13 18:13:26;;;;;;;14.53;7.50;;;20.10;65.80;;;;;;7814720;22;20212;-84